Time;durP1;ratioP1;P1;durP2;ratioP2;P2;SDS_P1;SDS_P2;PMS_P1;PMS_P2;Temp;Humidity;BMP_temperature;BMP_pressure;BME280_temperature;BME280_humidity;BME280_pressure;Samples;Min_cycle;Max_cycle;Signal;HPM_P1;HPM_P2
2021/06/09 00:05:12;;;;;;;12.00;10.85;;;15.60;99.90;;;;;;5021417;28;20142;-64
2021/06/09 00:07:39;;;;;;;11.70;10.50;;;15.50;99.90;;;;;;5021500;28;20228;-65
2021/06/09 00:10:06;;;;;;;11.32;10.32;;;15.50;99.90;;;;;;5021153;28;20037;-65
2021/06/09 00:12:33;;;;;;;15.57;10.95;;;15.50;99.90;;;;;;5024572;28;20034;-64
2021/06/09 00:14:59;;;;;;;12.13;11.00;;;15.40;99.90;;;;;;5023050;28;20041;-65
2021/06/09 00:17:27;;;;;;;12.05;10.68;;;15.40;99.90;;;;;;5023156;28;20512;-65
2021/06/09 00:19:53;;;;;;;12.35;10.00;;;15.40;99.90;;;;;;5021115;28;20494;-65
2021/06/09 00:22:21;;;;;;;12.93;11.73;;;15.30;99.90;;;;;;5023896;28;20129;-65
2021/06/09 00:24:47;;;;;;;11.48;10.38;;;15.40;99.90;;;;;;5022231;28;20095;-64
2021/06/09 00:27:13;;;;;;;13.35;11.70;;;15.30;99.90;;;;;;5021184;28;20468;-65
2021/06/09 00:29:39;;;;;;;14.25;12.77;;;15.40;99.90;;;;;;5023524;28;20046;-65
2021/06/09 00:32:06;;;;;;;13.32;12.02;;;15.40;99.90;;;;;;5023311;28;20033;-64
2021/06/09 00:34:33;;;;;;;14.77;13.23;;;15.40;99.90;;;;;;5024714;28;20034;-64
2021/06/09 00:36:59;;;;;;;13.60;12.38;;;15.40;99.90;;;;;;5021207;28;20041;-65
2021/06/09 00:39:24;;;;;;;14.65;13.07;;;15.30;99.90;;;;;;5024148;28;20037;-64
2021/06/09 00:41:55;;;;;;;13.93;12.45;;;15.30;99.90;;;;;;5023993;28;20078;-65
2021/06/09 00:44:21;;;;;;;16.10;12.57;;;15.30;99.90;;;;;;5018566;28;20030;-64
2021/06/09 00:46:47;;;;;;;21.75;12.98;;;15.30;99.90;;;;;;5021854;28;20049;-64
2021/06/09 00:49:13;;;;;;;13.43;12.02;;;15.30;99.90;;;;;;5022473;28;20099;-67
2021/06/09 00:51:41;;;;;;;15.13;13.30;;;15.30;99.90;;;;;;5023484;28;20029;-67
2021/06/09 00:54:07;;;;;;;14.98;13.52;;;15.30;99.90;;;;;;5019264;28;20037;-67
2021/06/09 00:56:38;;;;;;;14.90;13.40;;;15.30;99.90;;;;;;5019278;28;20134;-67
2021/06/09 00:59:05;;;;;;;14.13;12.73;;;15.30;99.90;;;;;;5022330;28;20030;-67
2021/06/09 01:01:31;;;;;;;13.95;12.65;;;15.30;99.90;;;;;;5023269;28;20080;-67
2021/06/09 01:03:58;;;;;;;14.40;13.20;;;15.30;99.90;;;;;;5021339;28;20041;-67
2021/06/09 01:06:24;;;;;;;13.10;11.95;;;15.30;99.90;;;;;;5022097;28;20095;-67
2021/06/09 01:09:10;;;;;;;14.32;12.88;;;15.30;99.90;;;;;;5021837;28;20085;-67
2021/06/09 01:11:37;;;;;;;14.45;13.18;;;15.30;99.90;;;;;;5022213;28;20034;-67
2021/06/09 01:14:22;;;;;;;14.95;13.38;;;15.30;99.90;;;;;;5021236;28;21443;-67
2021/06/09 01:16:50;;;;;;;14.38;12.88;;;15.30;99.90;;;;;;5022270;28;20041;-67
2021/06/09 01:19:17;;;;;;;16.15;13.68;;;15.30;99.90;;;;;;5020310;28;20068;-67
2021/06/09 01:21:44;;;;;;;13.07;11.30;;;15.30;99.90;;;;;;5023956;28;20485;-67
2021/06/09 01:24:10;;;;;;;13.55;12.05;;;15.20;99.90;;;;;;5021754;28;20041;-67
2021/06/09 01:26:38;;;;;;;13.82;12.40;;;15.20;99.90;;;;;;5020978;28;20042;-67
2021/06/09 01:29:05;;;;;;;14.40;12.63;;;15.20;99.90;;;;;;5022336;28;20041;-67
2021/06/09 01:31:31;;;;;;;14.30;12.57;;;15.20;99.90;;;;;;5022363;28;20476;-67
2021/06/09 01:34:05;;;;;;;13.52;12.32;;;15.20;99.90;;;;;;5020719;28;20152;-67
2021/06/09 01:36:42;;;;;;;15.05;13.57;;;15.20;99.90;;;;;;5020813;28;20037;-67
2021/06/09 01:39:14;;;;;;;15.63;14.00;;;15.30;99.90;;;;;;5021354;28;20033;-67
2021/06/09 01:41:45;;;;;;;15.63;12.75;;;15.20;99.90;;;;;;5021681;28;20488;-67
2021/06/09 01:44:31;;;;;;;12.27;11.10;;;15.20;99.90;;;;;;5047186;28;20041;-67
2021/06/09 01:46:57;;;;;;;13.63;12.05;;;15.20;99.90;;;;;;5019469;28;20451;-67
2021/06/09 01:49:22;;;;;;;12.98;11.88;;;15.20;99.90;;;;;;5020447;28;20081;-67
2021/06/09 01:51:48;;;;;;;11.68;10.57;;;15.10;99.90;;;;;;5021155;28;20169;-67
2021/06/09 01:54:14;;;;;;;14.20;12.95;;;15.10;99.90;;;;;;5020471;28;20531;-67
2021/06/09 01:56:40;;;;;;;13.07;11.80;;;15.00;99.90;;;;;;5021997;28;20147;-67
2021/06/09 01:59:16;;;;;;;13.25;11.95;;;14.90;99.90;;;;;;5021036;28;20038;-67
2021/06/09 02:01:43;;;;;;;14.10;12.75;;;14.90;99.90;;;;;;5019348;28;20203;-67
2021/06/09 02:04:10;;;;;;;13.15;11.85;;;14.90;99.90;;;;;;5050678;28;20059;-67
2021/06/09 02:06:51;;;;;;;14.05;12.80;;;14.90;99.90;;;;;;5022217;28;20052;-67
2021/06/09 02:09:38;;;;;;;13.73;11.75;;;14.90;99.90;;;;;;5022200;28;20064;-67
2021/06/09 02:12:06;;;;;;;12.50;11.40;;;14.90;99.90;;;;;;5022326;28;20041;-67
2021/06/09 02:14:32;;;;;;;16.98;13.23;;;14.90;99.90;;;;;;5022251;28;20045;-67
2021/06/09 02:16:58;;;;;;;14.55;13.00;;;14.90;99.90;;;;;;5022171;28;20049;-67
2021/06/09 02:19:25;;;;;;;13.65;12.45;;;14.90;99.90;;;;;;5021882;28;20033;-67
2021/06/09 02:21:52;;;;;;;15.27;13.68;;;14.80;99.90;;;;;;5023078;28;20044;-67
2021/06/09 02:24:19;;;;;;;18.08;14.02;;;14.80;99.90;;;;;;5023477;28;20056;-67
2021/06/09 02:26:45;;;;;;;16.77;14.18;;;14.80;99.90;;;;;;5023346;28;20917;-67
2021/06/09 02:29:13;;;;;;;15.43;13.98;;;14.70;99.90;;;;;;5024965;28;20052;-67
2021/06/09 02:31:49;;;;;;;14.13;12.65;;;14.70;99.90;;;;;;5027153;28;20037;-67
2021/06/09 02:34:24;;;;;;;13.07;11.77;;;14.60;99.90;;;;;;5028239;28;20082;-67
2021/06/09 02:36:52;;;;;;;14.23;12.85;;;14.60;99.90;;;;;;5026701;28;20544;-67
2021/06/09 02:39:19;;;;;;;14.30;12.80;;;14.50;99.90;;;;;;5029633;28;20053;-67
2021/06/09 02:41:46;;;;;;;15.95;13.90;;;14.40;99.90;;;;;;5031511;28;20053;-67
2021/06/09 02:44:12;;;;;;;13.98;12.57;;;14.40;99.90;;;;;;5028468;28;20506;-67
2021/06/09 02:46:48;;;;;;;15.27;13.80;;;14.40;99.90;;;;;;5027601;28;20025;-67
2021/06/09 02:49:38;;;;;;;14.43;13.02;;;14.40;99.90;;;;;;5027114;28;20042;-67
2021/06/09 02:52:12;;;;;;;14.35;13.00;;;14.40;99.90;;;;;;5027727;28;20396;-67
2021/06/09 02:54:57;;;;;;;13.25;12.05;;;14.30;99.90;;;;;;5026658;28;20045;-67
2021/06/09 02:57:42;;;;;;;14.52;13.05;;;14.30;99.90;;;;;;5027387;28;20123;-67
2021/06/09 03:00:13;;;;;;;9.20;8.15;;;14.30;99.90;;;;;;5029641;28;20131;-67
2021/06/09 03:03:04;;;;;;;13.20;11.90;;;14.30;99.90;;;;;;5029744;28;20354;-67
2021/06/09 03:05:35;;;;;;;15.73;14.02;;;14.30;99.90;;;;;;5027046;28;20041;-67
2021/06/09 03:08:27;;;;;;;16.60;12.93;;;14.30;99.90;;;;;;5023761;28;20044;-67
2021/06/09 03:11:00;;;;;;;9.57;8.35;;;14.30;99.90;;;;;;5022484;28;20532;-67
2021/06/09 03:16:51;;;;;;;10.93;9.90;;;14.30;99.90;;;;;;5023212;28;20040;-67
2021/06/09 03:19:39;;;;;;;9.32;8.52;;;14.20;99.90;;;;;;5021927;28;20053;-67
2021/06/09 03:22:40;;;;;;;8.82;8.02;;;14.20;99.90;;;;;;5024684;28;20065;-67
2021/06/09 03:25:07;;;;;;;11.25;10.35;;;14.20;99.90;;;;;;5022451;28;21477;-67
2021/06/09 03:28:06;;;;;;;11.60;10.65;;;14.20;99.90;;;;;;5052614;28;20045;-67
2021/06/09 03:30:34;;;;;;;11.73;10.63;;;14.20;99.90;;;;;;5026192;28;20041;-67
2021/06/09 03:33:02;;;;;;;14.25;11.50;;;14.20;99.90;;;;;;5023570;28;20048;-67
2021/06/09 03:35:37;;;;;;;11.32;10.32;;;14.20;99.90;;;;;;5024458;28;20042;-67
2021/06/09 03:38:08;;;;;;;13.63;12.40;;;14.20;99.90;;;;;;5024505;28;20051;-67
2021/06/09 03:40:38;;;;;;;13.13;11.93;;;14.20;99.90;;;;;;5024923;28;20095;-67
2021/06/09 03:43:07;;;;;;;12.35;11.25;;;14.20;99.90;;;;;;5023907;28;20047;-67
2021/06/09 03:45:46;;;;;;;13.60;12.07;;;14.20;99.90;;;;;;5021290;28;20044;-67
2021/06/09 03:48:15;;;;;;;13.20;11.85;;;14.20;99.90;;;;;;5023043;28;20397;-67
2021/06/09 03:50:43;;;;;;;13.52;12.15;;;14.20;99.90;;;;;;5023809;28;20033;-67
2021/06/09 03:53:11;;;;;;;14.60;13.30;;;14.20;99.90;;;;;;5021781;28;20048;-67
2021/06/09 03:55:39;;;;;;;13.57;12.27;;;14.20;99.90;;;;;;5023668;28;20111;-67
2021/06/09 03:58:23;;;;;;;16.58;11.80;;;14.20;99.90;;;;;;5025203;28;20029;-67
2021/06/09 04:00:52;;;;;;;13.23;11.45;;;14.20;99.90;;;;;;5022355;28;20120;-67
2021/06/09 04:03:19;;;;;;;12.98;11.85;;;14.30;99.90;;;;;;5023966;28;20164;-67
2021/06/09 04:05:46;;;;;;;14.02;12.57;;;14.30;99.90;;;;;;5023451;28;20519;-67
2021/06/09 04:08:15;;;;;;;13.70;12.30;;;14.30;99.90;;;;;;5021826;28;20665;-67
2021/06/09 04:10:44;;;;;;;13.93;12.73;;;14.40;99.90;;;;;;5022572;28;20041;-67
2021/06/09 04:13:11;;;;;;;13.95;12.43;;;14.40;99.90;;;;;;5024498;28;20050;-67
2021/06/09 04:15:39;;;;;;;14.13;12.63;;;14.40;99.90;;;;;;5021578;28;20488;-66
2021/06/09 04:18:07;;;;;;;12.90;11.80;;;14.50;99.90;;;;;;5023620;28;20042;-66
2021/06/09 04:20:34;;;;;;;14.55;12.65;;;14.60;99.90;;;;;;5021515;28;20136;-67
2021/06/09 04:23:00;;;;;;;13.98;12.45;;;14.70;99.90;;;;;;5023957;28;20034;-66
2021/06/09 04:25:26;;;;;;;14.27;12.80;;;14.70;99.90;;;;;;5023187;28;20052;-67
2021/06/09 04:27:53;;;;;;;13.68;12.15;;;14.70;99.90;;;;;;5022700;28;20703;-67
2021/06/09 04:30:21;;;;;;;14.02;12.60;;;14.80;99.90;;;;;;5022019;28;20044;-67
2021/06/09 04:33:02;;;;;;;15.50;11.80;;;14.90;99.90;;;;;;5022565;28;20042;-66
2021/06/09 04:35:44;;;;;;;14.27;12.98;;;15.00;99.90;;;;;;5023600;28;20038;-66
2021/06/09 04:38:16;;;;;;;14.55;13.15;;;15.10;99.90;;;;;;5021715;28;20068;-67
2021/06/09 04:40:43;;;;;;;14.40;12.90;;;15.30;99.90;;;;;;5021883;28;20985;-67
2021/06/09 04:43:09;;;;;;;15.93;13.57;;;15.40;99.90;;;;;;5027414;28;20045;-67
2021/06/09 04:45:36;;;;;;;15.13;13.52;;;15.50;99.90;;;;;;5026111;28;20770;-66
2021/06/09 04:48:08;;;;;;;15.38;13.93;;;15.60;99.90;;;;;;5025793;28;20121;-66
2021/06/09 04:50:34;;;;;;;13.95;12.60;;;15.90;99.90;;;;;;5025510;28;20034;-66
2021/06/09 04:53:12;;;;;;;14.10;12.80;;;16.50;99.90;;;;;;5027355;28;20103;-66
2021/06/09 04:55:40;;;;;;;16.10;12.68;;;17.30;99.90;;;;;;5025611;28;20777;-67
2021/06/09 04:58:05;;;;;;;15.90;12.40;;;18.10;99.90;;;;;;5026073;28;20112;-64
2021/06/09 05:00:31;;;;;;;11.75;10.75;;;18.90;99.20;;;;;;5026699;28;20182;-64
2021/06/09 05:02:57;;;;;;;11.90;10.75;;;19.40;97.90;;;;;;5027468;28;20134;-64
2021/06/09 05:05:23;;;;;;;12.00;10.82;;;19.60;96.90;;;;;;5026305;28;20041;-64
2021/06/09 05:07:49;;;;;;;11.70;10.60;;;19.70;96.50;;;;;;5026322;28;20041;-64
2021/06/09 05:10:15;;;;;;;15.60;10.90;;;19.70;96.40;;;;;;5025583;28;20038;-64
2021/06/09 05:12:47;;;;;;;17.40;10.02;;;19.60;96.40;;;;;;5028102;28;20037;-64
2021/06/09 05:15:14;;;;;;;11.32;9.27;;;19.60;96.40;;;;;;5026030;28;20048;-65
2021/06/09 05:17:44;;;;;;;11.13;10.02;;;19.50;96.50;;;;;;5027378;28;20052;-64
2021/06/09 05:20:16;;;;;;;15.02;9.07;;;19.50;96.70;;;;;;5026694;28;20648;-64
2021/06/09 05:22:51;;;;;;;14.23;10.00;;;19.60;96.80;;;;;;5028004;28;20910;-64
2021/06/09 05:25:38;;;;;;;10.15;9.25;;;19.60;96.30;;;;;;5009747;28;20150;-64
2021/06/09 05:28:08;;;;;;;11.45;9.07;;;19.70;96.70;;;;;;5025336;28;20131;-65
2021/06/09 05:30:35;;;;;;;10.43;8.90;;;19.80;96.30;;;;;;5025038;28;20038;-65
2021/06/09 05:33:02;;;;;;;8.13;7.43;;;20.00;96.10;;;;;;5027113;28;20042;-65
2021/06/09 05:35:30;;;;;;;7.90;7.07;;;20.10;95.80;;;;;;5023343;28;20037;-65
2021/06/09 05:37:56;;;;;;;7.75;6.95;;;20.40;95.00;;;;;;5024208;28;20033;-64
2021/06/09 05:40:22;;;;;;;7.32;6.78;;;20.60;94.30;;;;;;5022038;28;20046;-65
2021/06/09 05:42:49;;;;;;;7.55;6.85;;;20.70;93.20;;;;;;5022010;28;20044;-64
2021/06/09 05:45:27;;;;;;;8.68;7.18;;;20.90;93.10;;;;;;5022776;28;20046;-64
2021/06/09 05:47:53;;;;;;;9.40;7.10;;;21.10;93.20;;;;;;5021469;28;20037;-64
2021/06/09 05:50:21;;;;;;;7.68;6.85;;;21.40;92.80;;;;;;5022812;28;20091;-64
2021/06/09 05:52:50;;;;;;;7.88;7.18;;;21.50;91.80;;;;;;5023167;28;20037;-64
2021/06/09 05:55:18;;;;;;;7.85;7.10;;;21.70;91.80;;;;;;5021003;28;20052;-64
2021/06/09 05:57:46;;;;;;;8.80;8.00;;;22.00;92.00;;;;;;5022308;28;20037;-64
2021/06/09 06:00:17;;;;;;;7.85;7.05;;;22.20;91.00;;;;;;5019497;28;20741;-64
2021/06/09 06:02:48;;;;;;;8.23;7.43;;;22.30;90.70;;;;;;5020501;28;20050;-64
2021/06/09 06:05:22;;;;;;;8.18;7.38;;;22.60;90.50;;;;;;5021442;28;20520;-64
2021/06/09 06:07:50;;;;;;;10.25;6.95;;;22.70;90.40;;;;;;5021009;28;20059;-64
2021/06/09 06:10:16;;;;;;;9.15;7.68;;;23.00;90.00;;;;;;5024940;28;20124;-64
2021/06/09 06:12:43;;;;;;;8.48;7.63;;;23.30;87.70;;;;;;5025814;28;20491;-64
2021/06/09 06:15:13;;;;;;;10.60;7.47;;;23.40;87.10;;;;;;5024801;28;20029;-64
2021/06/09 06:17:44;;;;;;;7.28;6.68;;;23.60;86.10;;;;;;5023157;28;20037;-64
2021/06/09 06:20:24;;;;;;;7.05;6.45;;;23.80;84.20;;;;;;5008871;28;20139;-64
2021/06/09 06:22:51;;;;;;;11.63;7.65;;;24.00;83.70;;;;;;5008811;28;20048;-64
2021/06/09 06:25:23;;;;;;;8.00;6.40;;;24.10;84.10;;;;;;5007426;28;20144;-64
2021/06/09 06:27:51;;;;;;;9.70;7.38;;;24.30;84.20;;;;;;5008660;28;20041;-64
2021/06/09 06:30:19;;;;;;;5.95;5.45;;;24.50;82.40;;;;;;5008902;28;20037;-64
2021/06/09 06:32:48;;;;;;;8.55;6.00;;;24.60;81.80;;;;;;5007676;28;20049;-65
2021/06/09 06:35:18;;;;;;;6.90;6.20;;;24.70;79.60;;;;;;5006513;28;20038;-65
2021/06/09 06:37:44;;;;;;;8.18;6.28;;;24.90;79.10;;;;;;5007691;28;20043;-65
2021/06/09 06:40:12;;;;;;;6.47;5.88;;;25.00;77.80;;;;;;5010618;28;20049;-64
2021/06/09 06:42:38;;;;;;;8.57;5.80;;;25.10;77.60;;;;;;5010084;28;20041;-64
2021/06/09 06:45:05;;;;;;;6.25;5.63;;;25.20;76.30;;;;;;5009131;28;20459;-65
2021/06/09 06:47:31;;;;;;;13.25;7.00;;;25.30;77.90;;;;;;5010464;28;20039;-65
2021/06/09 06:49:58;;;;;;;7.47;6.47;;;25.60;78.80;;;;;;5008443;28;20059;-65
2021/06/09 06:52:30;;;;;;;8.70;6.15;;;25.70;77.80;;;;;;5007152;28;20132;-65
2021/06/09 06:55:03;;;;;;;8.98;6.03;;;25.90;77.40;;;;;;5009019;28;20045;-65
2021/06/09 06:57:32;;;;;;;9.52;6.13;;;26.10;74.30;;;;;;5006599;28;20396;-65
2021/06/09 07:00:12;;;;;;;7.38;5.90;;;26.10;75.30;;;;;;5006275;28;20030;-65
2021/06/09 07:02:47;;;;;;;8.27;6.25;;;26.20;76.10;;;;;;5007348;28;20040;-65
2021/06/09 07:05:13;;;;;;;8.43;6.18;;;26.20;72.60;;;;;;5006004;28;20033;-65
2021/06/09 07:07:41;;;;;;;6.95;6.35;;;26.30;72.80;;;;;;5008494;28;21082;-65
2021/06/09 07:10:10;;;;;;;7.03;6.18;;;26.40;72.30;;;;;;5006486;28;20053;-65
2021/06/09 07:12:37;;;;;;;7.65;6.85;;;26.50;70.40;;;;;;5005821;28;20048;-65
2021/06/09 07:15:07;;;;;;;7.22;6.63;;;26.70;69.20;;;;;;5007226;28;20038;-65
2021/06/09 07:17:38;;;;;;;15.60;7.18;;;26.40;69.50;;;;;;5007271;28;20077;-65
2021/06/09 07:20:18;;;;;;;7.55;5.95;;;26.60;70.70;;;;;;5004527;28;20053;-65
2021/06/09 07:22:46;;;;;;;6.93;5.40;;;26.80;69.80;;;;;;5009504;28;20041;-65
2021/06/09 07:25:12;;;;;;;6.80;6.18;;;26.90;69.40;;;;;;5006767;28;20034;-65
2021/06/09 07:27:47;;;;;;;12.23;6.88;;;27.00;67.40;;;;;;5006672;28;20144;-65
2021/06/09 07:30:16;;;;;;;8.32;7.63;;;27.00;67.30;;;;;;5005868;28;20040;-65
2021/06/09 07:32:44;;;;;;;8.25;7.45;;;27.10;67.30;;;;;;5010353;28;20076;-65
2021/06/09 07:35:11;;;;;;;7.65;6.88;;;27.00;66.10;;;;;;5006371;28;20530;-65
2021/06/09 07:37:43;;;;;;;13.07;8.25;;;27.10;67.50;;;;;;5007212;28;20103;-65
2021/06/09 07:40:13;;;;;;;9.43;7.25;;;27.20;67.20;;;;;;5005541;28;20075;-65
2021/06/09 07:42:45;;;;;;;15.10;8.57;;;27.10;66.10;;;;;;5003247;28;20091;-65
2021/06/09 07:45:12;;;;;;;12.13;9.25;;;27.10;66.30;;;;;;5006239;28;20045;-65
2021/06/09 07:47:56;;;;;;;12.45;8.55;;;27.10;66.00;;;;;;5022934;28;20045;-65
2021/06/09 07:50:40;;;;;;;9.57;8.57;;;27.20;66.40;;;;;;5007138;28;20065;-65
2021/06/09 07:53:10;;;;;;;9.50;8.60;;;27.30;66.10;;;;;;5009259;28;20041;-65
2021/06/09 07:55:42;;;;;;;10.50;9.50;;;27.40;66.70;;;;;;5007457;28;20121;-65
2021/06/09 07:58:08;;;;;;;11.95;9.18;;;27.50;65.30;;;;;;5007729;28;20133;-65
2021/06/09 08:00:36;;;;;;;11.25;8.75;;;27.50;65.80;;;;;;5035834;28;20046;-65
2021/06/09 08:03:03;;;;;;;10.40;8.48;;;27.50;67.10;;;;;;5006469;28;20100;-65
2021/06/09 08:05:31;;;;;;;11.40;9.52;;;27.60;68.70;;;;;;5009721;28;20093;-65
2021/06/09 08:07:57;;;;;;;10.63;9.63;;;27.70;65.40;;;;;;5009305;28;20049;-65
2021/06/09 08:10:23;;;;;;;10.68;9.65;;;27.70;64.10;;;;;;5013150;28;20041;-65
2021/06/09 08:12:53;;;;;;;11.05;9.95;;;27.70;65.30;;;;;;5010835;28;20049;-65
2021/06/09 08:15:20;;;;;;;10.05;9.15;;;27.70;64.20;;;;;;5007193;28;20124;-65
2021/06/09 08:17:51;;;;;;;10.98;9.98;;;27.70;64.10;;;;;;5007871;28;20041;-65
2021/06/09 08:20:20;;;;;;;11.52;10.50;;;27.50;64.20;;;;;;5006147;28;20196;-65
2021/06/09 08:22:48;;;;;;;12.07;11.07;;;27.50;64.30;;;;;;5006574;28;20243;-65
2021/06/09 08:25:18;;;;;;;10.50;9.60;;;27.50;65.20;;;;;;5009185;28;20045;-65
2021/06/09 08:27:44;;;;;;;12.10;10.90;;;27.50;66.50;;;;;;5007490;28;20052;-65
2021/06/09 08:30:12;;;;;;;13.90;10.90;;;27.60;62.80;;;;;;5004900;28;20053;-65
2021/06/09 08:32:38;;;;;;;11.45;10.55;;;27.50;62.90;;;;;;5007387;28;20046;-65
2021/06/09 08:35:07;;;;;;;11.43;10.40;;;27.40;63.00;;;;;;5007686;28;20048;-65
2021/06/09 08:37:35;;;;;;;11.23;9.73;;;27.50;64.90;;;;;;5004122;28;20060;-66
2021/06/09 08:40:01;;;;;;;16.23;10.05;;;27.50;62.60;;;;;;5006804;28;20041;-66
2021/06/09 08:42:32;;;;;;;9.73;8.82;;;27.50;63.50;;;;;;5004278;28;20064;-66
2021/06/09 08:44:58;;;;;;;9.68;8.88;;;27.40;61.20;;;;;;5005673;28;20048;-66
2021/06/09 08:47:25;;;;;;;12.32;10.45;;;27.30;61.90;;;;;;5003645;28;20042;-66
2021/06/09 08:49:53;;;;;;;11.77;10.68;;;27.40;61.60;;;;;;5005400;28;20045;-66
2021/06/09 08:52:22;;;;;;;11.68;10.48;;;27.50;65.20;;;;;;5006059;28;20045;-66
2021/06/09 08:54:49;;;;;;;10.50;9.48;;;27.60;64.30;;;;;;5007818;28;20571;-66
2021/06/09 08:57:16;;;;;;;12.15;10.52;;;27.80;63.70;;;;;;5004661;28;20045;-66
2021/06/09 08:59:44;;;;;;;13.05;10.55;;;27.90;62.90;;;;;;5007192;28;20037;-66
2021/06/09 09:02:11;;;;;;;11.13;10.10;;;28.00;64.00;;;;;;5003929;28;20736;-66
2021/06/09 09:04:38;;;;;;;12.43;11.38;;;28.00;63.40;;;;;;5004482;28;20037;-66
2021/06/09 09:07:06;;;;;;;12.02;11.02;;;28.10;62.20;;;;;;5006850;28;20107;-66
2021/06/09 09:09:32;;;;;;;13.20;11.80;;;28.10;61.80;;;;;;5007916;28;20049;-66
2021/06/09 09:12:00;;;;;;;13.15;12.10;;;28.20;60.70;;;;;;5000823;28;20052;-66
2021/06/09 09:14:27;;;;;;;11.88;9.82;;;28.10;59.00;;;;;;5006665;28;21682;-66
2021/06/09 09:17:04;;;;;;;9.93;8.80;;;28.00;59.80;;;;;;5005501;28;20116;-66
2021/06/09 09:19:33;;;;;;;10.98;9.88;;;28.10;62.40;;;;;;5003733;28;20073;-66
2021/06/09 09:21:59;;;;;;;10.90;9.07;;;28.00;62.10;;;;;;5003612;28;20053;-66
2021/06/09 09:24:41;;;;;;;10.32;9.32;;;28.00;62.10;;;;;;5005501;28;20048;-66
2021/06/09 09:27:09;;;;;;;12.82;9.75;;;28.00;62.40;;;;;;5003794;28;20075;-66
2021/06/09 09:29:35;;;;;;;15.80;8.45;;;27.90;59.60;;;;;;5004289;28;20123;-66
2021/06/09 09:32:07;;;;;;;28.00;9.98;;;27.80;60.00;;;;;;5004181;28;20037;-66
2021/06/09 09:34:46;;;;;;;11.68;10.40;;;27.90;60.70;;;;;;5003149;28;20064;-66
2021/06/09 09:37:21;;;;;;;11.00;8.77;;;28.00;57.90;;;;;;5002495;28;20072;-66
2021/06/09 09:39:49;;;;;;;9.13;8.38;;;28.20;60.30;;;;;;5007021;28;20088;-66
2021/06/09 09:42:33;;;;;;;14.10;7.55;;;28.40;56.70;;;;;;5002003;28;20058;-66
2021/06/09 09:45:18;;;;;;;8.98;8.15;;;28.60;58.60;;;;;;5008711;28;20065;-66
2021/06/09 09:48:04;;;;;;;14.20;8.80;;;28.80;56.00;;;;;;5008281;28;20048;-66
2021/06/09 09:50:46;;;;;;;12.88;8.57;;;28.60;56.90;;;;;;5006511;28;20046;-66
2021/06/09 09:53:23;;;;;;;9.63;7.63;;;28.40;57.60;;;;;;5010267;28;20036;-66
2021/06/09 09:56:11;;;;;;;11.30;8.25;;;28.50;58.70;;;;;;5008737;28;20048;-66
2021/06/09 09:58:39;;;;;;;10.10;7.90;;;28.60;58.10;;;;;;5015107;28;20030;-66
2021/06/09 10:01:13;;;;;;;8.13;7.20;;;28.80;58.90;;;;;;5024186;28;20828;-66
2021/06/09 10:03:42;;;;;;;14.23;11.20;;;29.00;60.30;;;;;;5025862;28;20043;-67
2021/06/09 10:06:25;;;;;;;11.50;10.50;;;29.10;60.00;;;;;;5022874;28;20120;-66
2021/06/09 10:08:53;;;;;;;12.13;9.57;;;28.80;58.40;;;;;;5009908;28;20037;-66
2021/06/09 10:11:21;;;;;;;11.40;10.32;;;28.60;61.00;;;;;;5013061;28;20041;-66
2021/06/09 10:13:48;;;;;;;12.13;10.95;;;28.40;60.70;;;;;;5025373;28;20404;-66
2021/06/09 10:16:26;;;;;;;12.82;11.38;;;28.30;61.70;;;;;;5024352;28;20045;-66
2021/06/09 10:19:12;;;;;;;12.23;11.23;;;28.10;61.80;;;;;;5025618;28;20139;-66
2021/06/09 10:21:47;;;;;;;11.40;10.40;;;28.20;62.70;;;;;;5025890;28;20128;-66
2021/06/09 10:24:16;;;;;;;12.93;10.98;;;28.40;63.30;;;;;;5024930;28;20072;-66
2021/06/09 10:26:50;;;;;;;13.05;11.43;;;28.60;58.90;;;;;;5010834;28;20049;-66
2021/06/09 10:29:29;;;;;;;10.93;9.82;;;28.60;56.90;;;;;;5006683;28;20048;-66
2021/06/09 10:31:58;;;;;;;15.73;14.20;;;28.50;58.00;;;;;;5011451;28;21264;-66
2021/06/09 10:34:32;;;;;;;11.95;10.85;;;28.50;54.50;;;;;;5009830;28;20037;-66
2021/06/09 10:36:59;;;;;;;12.68;11.43;;;28.50;57.20;;;;;;5008695;28;20080;-66
2021/06/09 10:39:29;;;;;;;15.20;11.00;;;28.80;58.80;;;;;;5010376;28;20870;-66
2021/06/09 10:42:01;;;;;;;14.35;10.82;;;28.90;61.00;;;;;;5013782;28;20045;-66
2021/06/09 10:44:34;;;;;;;13.82;10.50;;;29.00;60.10;;;;;;5011322;28;20086;-66
2021/06/09 10:47:01;;;;;;;10.70;9.70;;;29.00;56.80;;;;;;5007597;28;20041;-66
2021/06/09 10:49:32;;;;;;;11.88;10.32;;;28.90;57.40;;;;;;5009661;28;20087;-66
2021/06/09 10:51:59;;;;;;;13.70;12.38;;;29.00;59.10;;;;;;5011045;28;20034;-66
2021/06/09 10:54:25;;;;;;;14.50;12.93;;;29.10;57.90;;;;;;5008534;28;20037;-66
2021/06/09 10:56:53;;;;;;;14.18;12.82;;;29.10;56.90;;;;;;5008116;28;20056;-66
2021/06/09 10:59:22;;;;;;;12.27;11.27;;;29.10;55.80;;;;;;5013030;28;20073;-66
2021/06/09 11:01:50;;;;;;;14.23;12.98;;;29.20;58.50;;;;;;5014394;28;20045;-66
2021/06/09 11:04:17;;;;;;;12.20;10.95;;;29.20;55.50;;;;;;5009493;28;20519;-66
2021/06/09 11:06:48;;;;;;;13.15;11.50;;;29.10;57.00;;;;;;5008544;28;20041;-66
2021/06/09 11:09:19;;;;;;;13.75;10.80;;;29.30;55.50;;;;;;5009613;28;20052;-66
2021/06/09 11:11:48;;;;;;;20.00;11.80;;;29.30;53.20;;;;;;5009683;28;20049;-66
2021/06/09 11:14:20;;;;;;;12.82;11.25;;;29.20;55.40;;;;;;5007955;28;20049;-66
2021/06/09 11:16:50;;;;;;;10.98;9.90;;;29.30;55.50;;;;;;5007515;28;20051;-66
2021/06/09 11:19:34;;;;;;;10.93;9.85;;;29.20;57.10;;;;;;5006471;28;20049;-67
2021/06/09 11:22:19;;;;;;;12.05;10.95;;;29.20;59.10;;;;;;5005776;28;20041;-67
2021/06/09 11:25:19;;;;;;;12.57;10.68;;;29.30;58.30;;;;;;5007032;28;20105;-67
2021/06/09 11:27:58;;;;;;;10.90;9.50;;;29.50;55.90;;;;;;5006242;28;20042;-67
2021/06/09 11:30:24;;;;;;;13.00;9.70;;;29.30;56.00;;;;;;5005356;28;20682;-67
2021/06/09 11:32:51;;;;;;;105.60;14.73;;;29.30;56.60;;;;;;5007070;28;20038;-67
2021/06/09 11:35:20;;;;;;;26.92;10.80;;;29.50;58.20;;;;;;5007148;28;20247;-67
2021/06/09 11:38:11;;;;;;;10.30;9.25;;;29.40;54.70;;;;;;5008089;28;20048;-67
2021/06/09 11:40:51;;;;;;;11.35;10.10;;;29.30;55.00;;;;;;5005646;28;20964;-67
2021/06/09 11:43:27;;;;;;;12.25;8.68;;;29.30;55.10;;;;;;5006342;28;20163;-66
2021/06/09 11:46:21;;;;;;;12.60;9.77;;;29.30;56.50;;;;;;5006791;28;20049;-66
2021/06/09 11:49:07;;;;;;;21.30;8.68;;;29.50;56.60;;;;;;5004579;28;20100;-66
2021/06/09 11:51:37;;;;;;;12.90;8.23;;;29.60;56.60;;;;;;5008668;28;20045;-66
2021/06/09 11:54:05;;;;;;;10.40;9.45;;;29.70;56.90;;;;;;5006276;28;20045;-66
2021/06/09 11:56:48;;;;;;;10.98;8.70;;;29.70;55.10;;;;;;5005371;28;20105;-66
2021/06/09 11:59:34;;;;;;;9.90;9.00;;;29.70;55.20;;;;;;5036420;28;20104;-66
2021/06/09 12:02:01;;;;;;;;;;;29.60;53.60;;;;;;5014024;28;20033;-66
2021/06/09 12:04:43;;;;;;;12.90;8.43;;;29.50;52.70;;;;;;5007647;28;19925;-66
2021/06/09 12:07:26;;;;;;;35.38;9.45;;;29.50;55.50;;;;;;5006371;28;20045;-66
2021/06/09 12:09:59;;;;;;;18.65;8.27;;;29.60;53.90;;;;;;5006928;28;21623;-66
2021/06/09 12:12:27;;;;;;;10.35;9.23;;;29.70;54.50;;;;;;5006786;28;20224;-66
2021/06/09 12:14:54;;;;;;;14.40;8.48;;;29.60;55.30;;;;;;5007197;28;20049;-66
2021/06/09 12:17:27;;;;;;;9.90;8.02;;;29.30;56.60;;;;;;5005277;28;20049;-66
2021/06/09 12:20:08;;;;;;;10.38;8.27;;;29.20;58.40;;;;;;5033092;28;20143;-66
2021/06/09 12:22:39;;;;;;;8.68;7.95;;;29.20;58.00;;;;;;5007215;28;20045;-66
2021/06/09 12:25:08;;;;;;;9.82;7.95;;;29.30;57.10;;;;;;5006033;28;21420;-66
2021/06/09 12:27:37;;;;;;;11.02;9.85;;;29.50;56.10;;;;;;5005294;28;20045;-66
2021/06/09 12:30:08;;;;;;;9.90;8.93;;;29.50;51.10;;;;;;5007627;28;20049;-66
2021/06/09 12:32:36;;;;;;;12.35;7.32;;;29.10;53.90;;;;;;5005971;28;20041;-66
2021/06/09 12:35:08;;;;;;;7.40;6.40;;;29.10;56.70;;;;;;5004688;28;20066;-66
2021/06/09 12:37:38;;;;;;;10.77;9.25;;;29.10;59.30;;;;;;5003541;28;20577;-66
2021/06/09 12:40:14;;;;;;;12.43;9.90;;;29.20;55.10;;;;;;5004909;28;20061;-66
2021/06/09 12:42:46;;;;;;;12.30;7.30;;;29.30;51.30;;;;;;5006274;28;20076;-66
2021/06/09 12:45:13;;;;;;;11.13;6.80;;;29.20;54.50;;;;;;5005500;28;20037;-66
2021/06/09 12:47:42;;;;;;;9.13;8.23;;;29.20;57.90;;;;;;5004325;28;20155;-66
2021/06/09 12:50:29;;;;;;;12.90;9.35;;;29.10;57.50;;;;;;5003479;28;20045;-66
2021/06/09 12:53:00;;;;;;;12.25;9.48;;;29.00;56.10;;;;;;5005777;28;20037;-66
2021/06/09 12:55:32;;;;;;;20.90;9.43;;;28.90;56.30;;;;;;5005139;28;20048;-66
2021/06/09 12:58:00;;;;;;;14.90;8.75;;;28.90;55.50;;;;;;5006761;28;20755;-66
2021/06/09 13:00:39;;;;;;;8.98;7.47;;;28.90;56.30;;;;;;5034483;28;20150;-66